sensor_id;sensor_type;location;lat;lon;timestamp;temperature;humidity
7212;DHT22;3647;48.792;9.802;2022-09-16T13:06:32;17.00;99.90
7212;DHT22;3647;48.792;9.802;2022-09-16T13:09:14;17.00;99.90
7212;DHT22;3647;48.792;9.802;2022-09-16T13:11:52;17.10;99.90
7212;DHT22;3647;48.792;9.802;2022-09-16T13:14:21;17.00;99.90
7212;DHT22;3647;48.792;9.802;2022-09-16T13:16:53;16.90;99.90
7212;DHT22;3647;48.792;9.802;2022-09-16T13:19:33;17.30;99.90
7212;DHT22;3647;48.792;9.802;2022-09-16T13:24:54;17.20;99.90
7212;DHT22;3647;48.792;9.802;2022-09-16T13:27:29;16.80;99.90
7212;DHT22;3647;48.792;9.802;2022-09-16T13:30:15;16.70;99.90
7212;DHT22;3647;48.792;9.802;2022-09-16T13:33:22;16.50;99.90
7212;DHT22;3647;48.792;9.802;2022-09-16T13:36:03;16.50;99.90
7212;DHT22;3647;48.792;9.802;2022-09-16T13:38:39;16.40;99.90
7212;DHT22;3647;48.792;9.802;2022-09-16T13:41:09;16.60;99.90
7212;DHT22;3647;48.792;9.802;2022-09-16T13:43:49;16.70;99.90
7212;DHT22;3647;48.792;9.802;2022-09-16T13:46:30;16.80;99.90
7212;DHT22;3647;48.792;9.802;2022-09-16T13:49:10;17.00;99.90
7212;DHT22;3647;48.792;9.802;2022-09-16T13:51:39;17.00;99.90
7212;DHT22;3647;48.792;9.802;2022-09-16T13:54:21;17.10;99.90
7212;DHT22;3647;48.792;9.802;2022-09-16T13:57:08;17.20;99.90
7212;DHT22;3647;48.792;9.802;2022-09-16T13:59:56;17.40;99.90
7212;DHT22;3647;48.792;9.802;2022-09-16T14:02:36;17.40;99.90
7212;DHT22;3647;48.792;9.802;2022-09-16T14:05:24;17.30;99.90
7212;DHT22;3647;48.792;9.802;2022-09-16T14:07:58;17.40;99.90
7212;DHT22;3647;48.792;9.802;2022-09-16T14:10:34;17.50;99.90
7212;DHT22;3647;48.792;9.802;2022-09-16T14:13:10;17.60;99.90
7212;DHT22;3647;48.792;9.802;2022-09-16T14:15:41;17.50;99.90
7212;DHT22;3647;48.792;9.802;2022-09-16T14:18:12;17.20;99.90
7212;DHT22;3647;48.792;9.802;2022-09-16T14:20:53;17.30;99.90
7212;DHT22;3647;48.792;9.802;2022-09-16T14:23:23;17.30;99.90
7212;DHT22;3647;48.792;9.802;2022-09-16T14:25:51;17.40;99.90
7212;DHT22;3647;48.792;9.802;2022-09-16T14:28:20;17.30;99.90
7212;DHT22;3647;48.792;9.802;2022-09-16T14:30:49;17.20;99.90
7212;DHT22;3647;48.792;9.802;2022-09-16T14:33:20;17.40;99.90
7212;DHT22;3647;48.792;9.802;2022-09-16T14:35:48;17.40;99.90
7212;DHT22;3647;48.792;9.802;2022-09-16T14:38:17;17.40;99.90
7212;DHT22;3647;48.792;9.802;2022-09-16T14:43:17;17.40;99.90
7212;DHT22;3647;48.792;9.802;2022-09-16T14:45:48;17.40;99.90
7212;DHT22;3647;48.792;9.802;2022-09-16T14:48:17;17.40;99.90
7212;DHT22;3647;48.792;9.802;2022-09-16T14:50:46;17.40;99.90
7212;DHT22;3647;48.792;9.802;2022-09-16T14:53:26;17.60;99.90
7212;DHT22;3647;48.792;9.802;2022-09-16T14:55:53;17.60;99.90
7212;DHT22;3647;48.792;9.802;2022-09-16T14:58:24;17.50;99.90
7212;DHT22;3647;48.792;9.802;2022-09-16T15:00:55;17.40;99.90
7212;DHT22;3647;48.792;9.802;2022-09-16T15:03:28;17.60;99.90
7212;DHT22;3647;48.792;9.802;2022-09-16T15:05:58;17.40;99.90
7212;DHT22;3647;48.792;9.802;2022-09-16T15:08:30;17.40;99.90
7212;DHT22;3647;48.792;9.802;2022-09-16T15:10:59;17.40;99.90
7212;DHT22;3647;48.792;9.802;2022-09-16T15:13:33;17.40;99.90
7212;DHT22;3647;48.792;9.802;2022-09-16T15:16:03;17.40;99.90
7212;DHT22;3647;48.792;9.802;2022-09-16T15:18:35;17.40;99.90
7212;DHT22;3647;48.792;9.802;2022-09-16T15:21:06;17.40;99.90
7212;DHT22;3647;48.792;9.802;2022-09-16T15:23:34;17.30;99.90
7212;DHT22;3647;48.792;9.802;2022-09-16T15:26:13;17.30;99.90
7212;DHT22;3647;48.792;9.802;2022-09-16T15:28:56;16.90;99.90
7212;DHT22;3647;48.792;9.802;2022-09-16T15:31:31;16.80;99.90
7212;DHT22;3647;48.792;9.802;2022-09-16T15:34:00;16.70;99.90
7212;DHT22;3647;48.792;9.802;2022-09-16T15:36:36;16.60;99.90
7212;DHT22;3647;48.792;9.802;2022-09-16T15:39:04;16.60;99.90
7212;DHT22;3647;48.792;9.802;2022-09-16T15:41:31;16.60;99.90
7212;DHT22;3647;48.792;9.802;2022-09-16T15:43:59;16.70;99.90
7212;DHT22;3647;48.792;9.802;2022-09-16T15:46:27;16.70;99.90
7212;DHT22;3647;48.792;9.802;2022-09-16T15:48:56;16.80;99.90
7212;DHT22;3647;48.792;9.802;2022-09-16T15:51:29;16.90;99.90
7212;DHT22;3647;48.792;9.802;2022-09-16T15:54:00;16.90;99.90
7212;DHT22;3647;48.792;9.802;2022-09-16T15:56:32;17.00;99.90
7212;DHT22;3647;48.792;9.802;2022-09-16T15:59:04;16.80;99.90
7212;DHT22;3647;48.792;9.802;2022-09-16T16:01:44;16.70;99.90
7212;DHT22;3647;48.792;9.802;2022-09-16T16:04:13;16.70;99.90
7212;DHT22;3647;48.792;9.802;2022-09-16T16:06:49;16.40;99.90
7212;DHT22;3647;48.792;9.802;2022-09-16T16:09:41;16.20;99.90
7212;DHT22;3647;48.792;9.802;2022-09-16T16:12:10;16.20;99.90
7212;DHT22;3647;48.792;9.802;2022-09-16T16:14:40;16.00;99.90
7212;DHT22;3647;48.792;9.802;2022-09-16T16:17:09;15.90;99.90
7212;DHT22;3647;48.792;9.802;2022-09-16T16:19:37;15.90;99.90
7212;DHT22;3647;48.792;9.802;2022-09-16T16:22:05;15.80;99.90
7212;DHT22;3647;48.792;9.802;2022-09-16T16:24:32;15.90;99.90
7212;DHT22;3647;48.792;9.802;2022-09-16T16:26:59;15.70;99.90
7212;DHT22;3647;48.792;9.802;2022-09-16T16:31:59;15.70;99.90
7212;DHT22;3647;48.792;9.802;2022-09-16T16:39:20;15.40;99.90
7212;DHT22;3647;48.792;9.802;2022-09-16T16:41:49;15.30;99.90
7212;DHT22;3647;48.792;9.802;2022-09-16T16:44:16;15.30;99.90
7212;DHT22;3647;48.792;9.802;2022-09-16T16:46:42;15.30;99.90
7212;DHT22;3647;48.792;9.802;2022-09-16T16:49:10;15.20;99.90
7212;DHT22;3647;48.792;9.802;2022-09-16T16:51:37;15.10;99.90
7212;DHT22;3647;48.792;9.802;2022-09-16T16:54:04;15.00;99.90
7212;DHT22;3647;48.792;9.802;2022-09-16T16:56:31;14.90;99.90
7212;DHT22;3647;48.792;9.802;2022-09-16T16:58:58;14.80;99.90
7212;DHT22;3647;48.792;9.802;2022-09-16T17:01:25;14.60;99.90
7212;DHT22;3647;48.792;9.802;2022-09-16T17:03:54;14.60;99.90
7212;DHT22;3647;48.792;9.802;2022-09-16T17:06:22;14.60;99.90
7212;DHT22;3647;48.792;9.802;2022-09-16T17:08:50;14.50;99.90
7212;DHT22;3647;48.792;9.802;2022-09-16T17:11:18;14.40;99.90
7212;DHT22;3647;48.792;9.802;2022-09-16T17:13:47;14.30;99.90
7212;DHT22;3647;48.792;9.802;2022-09-16T17:16:17;14.40;99.90
7212;DHT22;3647;48.792;9.802;2022-09-16T17:18:44;14.20;99.90
7212;DHT22;3647;48.792;9.802;2022-09-16T17:21:12;14.20;99.90
7212;DHT22;3647;48.792;9.802;2022-09-16T17:23:40;14.20;99.90
7212;DHT22;3647;48.792;9.802;2022-09-16T17:28:36;14.20;99.90
7212;DHT22;3647;48.792;9.802;2022-09-16T17:31:07;14.20;99.90
7212;DHT22;3647;48.792;9.802;2022-09-16T17:36:03;14.10;99.90
7212;DHT22;3647;48.792;9.802;2022-09-16T17:41:04;14.10;99.90
7212;DHT22;3647;48.792;9.802;2022-09-16T17:43:31;14.00;99.90
7212;DHT22;3647;48.792;9.802;2022-09-16T17:48:26;14.30;99.90
7212;DHT22;3647;48.792;9.802;2022-09-16T17:55:48;14.10;99.90
7212;DHT22;3647;48.792;9.802;2022-09-16T17:58:17;14.20;99.90
7212;DHT22;3647;48.792;9.802;2022-09-16T18:03:11;13.90;99.90
7212;DHT22;3647;48.792;9.802;2022-09-16T18:05:39;13.80;99.90
7212;DHT22;3647;48.792;9.802;2022-09-16T18:08:05;13.80;99.90
7212;DHT22;3647;48.792;9.802;2022-09-16T18:10:32;13.70;99.90
7212;DHT22;3647;48.792;9.802;2022-09-16T18:12:59;13.70;99.90
7212;DHT22;3647;48.792;9.802;2022-09-16T18:15:29;13.70;99.90
7212;DHT22;3647;48.792;9.802;2022-09-16T18:22:50;13.40;99.90
7212;DHT22;3647;48.792;9.802;2022-09-16T18:25:17;13.40;99.90
7212;DHT22;3647;48.792;9.802;2022-09-16T18:30:11;13.30;99.90
7212;DHT22;3647;48.792;9.802;2022-09-16T18:32:39;13.30;99.90
7212;DHT22;3647;48.792;9.802;2022-09-16T18:35:06;12.90;99.90
7212;DHT22;3647;48.792;9.802;2022-09-16T18:37:33;13.00;99.90
7212;DHT22;3647;48.792;9.802;2022-09-16T18:47:21;13.00;99.90
7212;DHT22;3647;48.792;9.802;2022-09-16T18:49:49;12.70;99.90
7212;DHT22;3647;48.792;9.802;2022-09-16T18:59:38;12.60;99.90
7212;DHT22;3647;48.792;9.802;2022-09-16T19:04:37;12.50;99.90
7212;DHT22;3647;48.792;9.802;2022-09-16T19:07:07;12.40;99.90
7212;DHT22;3647;48.792;9.802;2022-09-16T19:09:35;12.50;99.90
7212;DHT22;3647;48.792;9.802;2022-09-16T19:12:03;12.50;99.90
7212;DHT22;3647;48.792;9.802;2022-09-16T19:24:21;12.40;99.90
7212;DHT22;3647;48.792;9.802;2022-09-16T19:26:50;12.40;99.90
7212;DHT22;3647;48.792;9.802;2022-09-16T19:29:17;12.40;99.90
7212;DHT22;3647;48.792;9.802;2022-09-16T19:31:46;12.40;99.90
7212;DHT22;3647;48.792;9.802;2022-09-16T19:34:14;12.30;99.90
7212;DHT22;3647;48.792;9.802;2022-09-16T19:36:41;12.20;99.90
7212;DHT22;3647;48.792;9.802;2022-09-16T19:39:09;12.30;99.90
7212;DHT22;3647;48.792;9.802;2022-09-16T19:41:38;12.30;99.90
7212;DHT22;3647;48.792;9.802;2022-09-16T19:44:07;12.30;99.90
7212;DHT22;3647;48.792;9.802;2022-09-16T19:46:37;12.30;99.90
7212;DHT22;3647;48.792;9.802;2022-09-16T19:56:28;12.20;99.90
7212;DHT22;3647;48.792;9.802;2022-09-16T19:58:57;12.10;99.90
7212;DHT22;3647;48.792;9.802;2022-09-16T20:01:27;12.10;99.90
7212;DHT22;3647;48.792;9.802;2022-09-16T20:06:23;12.10;99.90
7212;DHT22;3647;48.792;9.802;2022-09-16T20:08:53;12.00;99.90
7212;DHT22;3647;48.792;9.802;2022-09-16T20:11:21;12.00;99.90
7212;DHT22;3647;48.792;9.802;2022-09-16T20:13:49;12.00;99.90
7212;DHT22;3647;48.792;9.802;2022-09-16T20:16:18;12.00;99.90
7212;DHT22;3647;48.792;9.802;2022-09-16T20:18:46;11.90;99.90
7212;DHT22;3647;48.792;9.802;2022-09-16T20:21:15;11.90;99.90
7212;DHT22;3647;48.792;9.802;2022-09-16T20:23:43;11.90;99.90
7212;DHT22;3647;48.792;9.802;2022-09-16T20:26:11;11.80;99.90
7212;DHT22;3647;48.792;9.802;2022-09-16T20:28:41;11.80;99.90
7212;DHT22;3647;48.792;9.802;2022-09-16T20:31:09;11.80;99.90
7212;DHT22;3647;48.792;9.802;2022-09-16T20:33:38;11.90;99.90
7212;DHT22;3647;48.792;9.802;2022-09-16T20:36:06;11.80;99.90
7212;DHT22;3647;48.792;9.802;2022-09-16T20:38:35;11.80;99.90
7212;DHT22;3647;48.792;9.802;2022-09-16T20:41:03;11.80;99.90
7212;DHT22;3647;48.792;9.802;2022-09-16T20:43:30;11.70;99.90
7212;DHT22;3647;48.792;9.802;2022-09-16T20:46:02;11.60;99.90
7212;DHT22;3647;48.792;9.802;2022-09-16T20:48:29;10.30;99.90
7212;DHT22;3647;48.792;9.802;2022-09-16T20:51:01;11.60;99.90
7212;DHT22;3647;48.792;9.802;2022-09-16T20:55:59;11.50;99.90
7212;DHT22;3647;48.792;9.802;2022-09-16T20:58:26;11.50;99.90
7212;DHT22;3647;48.792;9.802;2022-09-16T21:08:16;11.40;99.90
7212;DHT22;3647;48.792;9.802;2022-09-16T21:10:42;11.30;99.90
7212;DHT22;3647;48.792;9.802;2022-09-16T21:15:36;11.30;99.90
7212;DHT22;3647;48.792;9.802;2022-09-16T21:18:03;11.20;99.90
7212;DHT22;3647;48.792;9.802;2022-09-16T21:20:31;11.20;99.90
7212;DHT22;3647;48.792;9.802;2022-09-16T21:22:57;11.10;99.90
7212;DHT22;3647;48.792;9.802;2022-09-16T21:25:27;11.10;99.90
7212;DHT22;3647;48.792;9.802;2022-09-16T21:27:53;11.10;99.90
7212;DHT22;3647;48.792;9.802;2022-09-16T21:32:48;11.00;99.90
7212;DHT22;3647;48.792;9.802;2022-09-16T21:35:15;10.90;99.90
7212;DHT22;3647;48.792;9.802;2022-09-16T21:40:09;10.70;99.90
7212;DHT22;3647;48.792;9.802;2022-09-16T21:42:38;10.80;99.90
7212;DHT22;3647;48.792;9.802;2022-09-16T21:45:06;10.70;99.90
7212;DHT22;3647;48.792;9.802;2022-09-16T21:47:33;10.70;99.90
7212;DHT22;3647;48.792;9.802;2022-09-16T21:54:55;10.80;99.90
7212;DHT22;3647;48.792;9.802;2022-09-16T21:59:51;10.90;99.90
